Terminal Aerodrome Forecast
Issued by NWS

Home | Current Version | Previous Version | Text Only | Print | Product List | Glossary On
Versions: 1 2 3 4 5 6 7 8 9 10 11 12 13 14 15 16
000
FTAK31 PAJN 201700
TAFAGY
TAF
PAGY 201724Z 2018/2118 VRB05KT P6SM -SHRA FEW030 OVC060
     FM202000 21010KT P6SM -SHRA SCT020 OVC035
     FM202300 21011G18KT P6SM VCSH OVC050
     FM210400 21011KT P6SM VCSH BKN050
     FM210700 21004KT P6SM VCSH SCT020 BKN030 OVC060
     FM211100 VRB05KT P6SM BKN030 BKN060
     FM211600 04005KT P6SM BKN060
      AMD LTD TO CLD VIS AND WIND=

USA.gov is the U.S. government's official web portal to all federal, state and local government web resources and services.